Time;durP1;ratioP1;P1;durP2;ratioP2;P2;SDS_P1;SDS_P2;PMS_P1;PMS_P2;Temp;Humidity;BMP_temperature;BMP_pressure;BME280_temperature;BME280_humidity;BME280_pressure;Samples;Min_cycle;Max_cycle;Signal;HPM_P1;HPM_P2
2021/03/08 00:02:11;;;;;;;28.70;16.75;;;6.50;74.90;;;;;;5014598;28;20464;-85
2021/03/08 00:04:37;;;;;;;28.90;17.45;;;6.50;75.00;;;;;;5032503;28;20025;-85
2021/03/08 00:07:02;;;;;;;26.75;16.10;;;6.50;75.10;;;;;;4997435;28;20060;-86
2021/03/08 00:09:29;;;;;;;30.67;16.65;;;6.50;75.40;;;;;;5031821;28;20420;-85
2021/03/08 00:11:54;;;;;;;27.45;16.73;;;6.50;75.60;;;;;;5032233;28;20052;-86
2021/03/08 00:14:20;;;;;;;27.45;15.73;;;6.50;75.60;;;;;;4998105;28;20099;-86
2021/03/08 00:16:45;;;;;;;28.05;16.08;;;6.50;75.70;;;;;;4998324;28;20393;-86
2021/03/08 00:19:11;;;;;;;27.42;16.80;;;6.50;76.40;;;;;;5031709;28;20438;-86
2021/03/08 00:21:37;;;;;;;26.35;15.55;;;6.40;75.80;;;;;;5014589;28;20088;-85
2021/03/08 00:24:03;;;;;;;27.60;16.80;;;6.40;75.90;;;;;;5032239;28;20036;-86
2021/03/08 00:26:28;;;;;;;25.95;15.75;;;6.40;76.00;;;;;;5030858;28;20432;-85
2021/03/08 00:28:54;;;;;;;27.20;16.33;;;6.40;76.10;;;;;;5014217;28;20073;-86
2021/03/08 00:31:19;;;;;;;27.52;16.85;;;6.40;76.00;;;;;;5012360;28;20025;-86
2021/03/08 00:33:45;;;;;;;29.08;16.30;;;6.40;76.00;;;;;;5018673;28;20473;-86
2021/03/08 00:36:11;;;;;;;32.00;18.80;;;6.40;75.90;;;;;;5014653;28;20030;-86
2021/03/08 00:38:36;;;;;;;28.20;17.55;;;6.40;76.20;;;;;;5014428;28;20030;-86
2021/03/08 00:41:02;;;;;;;26.23;16.10;;;6.30;76.30;;;;;;5014348;28;20037;-86
2021/03/08 00:43:27;;;;;;;28.23;16.13;;;6.30;76.40;;;;;;5031779;28;20049;-85
2021/03/08 00:45:53;;;;;;;26.75;15.23;;;6.30;76.60;;;;;;5015040;28;20041;-85
2021/03/08 00:48:19;;;;;;;29.33;17.10;;;6.30;76.70;;;;;;5031674;28;20477;-86
2021/03/08 00:50:44;;;;;;;29.77;16.95;;;6.30;76.80;;;;;;5032013;28;20034;-86
2021/03/08 00:53:10;;;;;;;25.83;15.32;;;6.30;76.80;;;;;;5013942;28;20420;-86
2021/03/08 00:55:35;;;;;;;25.20;16.13;;;6.30;76.90;;;;;;4997855;28;20033;-85
2021/03/08 00:58:01;;;;;;;27.08;16.77;;;6.30;77.10;;;;;;5014012;28;20100;-85
2021/03/08 01:00:28;;;;;;;30.40;16.13;;;6.30;77.20;;;;;;4997513;28;20424;-85
2021/03/08 01:02:53;;;;;;;27.13;15.73;;;6.30;77.10;;;;;;5014747;28;20037;-85
2021/03/08 01:05:21;;;;;;;28.10;17.42;;;6.30;77.30;;;;;;5032008;28;20037;-85
2021/03/08 01:07:46;;;;;;;31.25;16.70;;;6.20;77.60;;;;;;5032046;28;20513;-85
2021/03/08 01:10:19;;;;;;;25.67;15.52;;;6.30;77.50;;;;;;4999999;28;20026;-85
2021/03/08 01:12:44;;;;;;;26.35;16.23;;;6.30;77.70;;;;;;5018542;28;20072;-85
2021/03/08 01:15:11;;;;;;;30.45;17.63;;;6.30;77.70;;;;;;4997719;28;20033;-86
2021/03/08 01:17:37;;;;;;;29.67;17.27;;;6.30;77.70;;;;;;5032241;28;20037;-86
2021/03/08 01:20:15;;;;;;;29.88;18.42;;;6.20;77.60;;;;;;5001398;28;20037;-86
2021/03/08 01:22:41;;;;;;;28.40;16.17;;;6.20;77.60;;;;;;5034972;28;20021;-85
2021/03/08 01:25:12;;;;;;;26.50;16.98;;;6.20;77.60;;;;;;5017647;28;20029;-86
2021/03/08 01:27:38;;;;;;;26.80;15.60;;;6.20;77.70;;;;;;5035522;28;20029;-86
2021/03/08 01:30:12;;;;;;;26.63;16.13;;;6.20;77.80;;;;;;5017411;28;20029;-85
2021/03/08 01:32:38;;;;;;;25.13;13.90;;;6.20;77.80;;;;;;5017711;28;20112;-85
2021/03/08 01:35:05;;;;;;;24.30;14.18;;;6.20;77.90;;;;;;5017064;28;20215;-85
2021/03/08 01:37:31;;;;;;;28.60;17.20;;;6.20;77.90;;;;;;5017044;28;20033;-85
2021/03/08 01:39:58;;;;;;;25.45;15.75;;;6.20;78.00;;;;;;5034977;28;20061;-85
2021/03/08 01:42:24;;;;;;;30.00;16.90;;;6.20;78.00;;;;;;5034865;28;20033;-86
2021/03/08 01:44:49;;;;;;;29.65;17.65;;;6.20;78.20;;;;;;5003563;28;20083;-85
2021/03/08 01:47:15;;;;;;;26.33;15.73;;;6.20;78.20;;;;;;5000663;28;20041;-86
2021/03/08 01:49:41;;;;;;;30.85;17.60;;;6.20;78.30;;;;;;5000705;28;20025;-86
2021/03/08 01:52:09;;;;;;;32.97;18.35;;;6.20;78.30;;;;;;5000655;28;20033;-86
2021/03/08 01:54:34;;;;;;;32.42;17.60;;;6.20;78.30;;;;;;5000707;28;20413;-86
2021/03/08 01:57:00;;;;;;;28.25;16.92;;;6.20;78.40;;;;;;5034309;28;20029;-86
2021/03/08 01:59:26;;;;;;;31.33;17.35;;;6.10;79.00;;;;;;5034546;28;20033;-86
2021/03/08 02:01:53;;;;;;;29.88;17.15;;;6.10;78.50;;;;;;5016711;28;20059;-86
2021/03/08 02:04:19;;;;;;;31.40;17.50;;;6.10;78.60;;;;;;5016803;28;20033;-85
2021/03/08 02:06:44;;;;;;;31.00;18.60;;;6.10;78.70;;;;;;5016315;28;20061;-86
2021/03/08 02:09:11;;;;;;;30.73;18.55;;;6.10;78.80;;;;;;5034686;28;20045;-85
2021/03/08 02:11:39;;;;;;;26.67;15.88;;;6.10;78.80;;;;;;5016682;28;20033;-85
2021/03/08 02:14:23;;;;;;;30.77;18.88;;;6.10;78.90;;;;;;5016713;28;20032;-85
2021/03/08 02:17:17;;;;;;;29.95;18.00;;;6.10;79.00;;;;;;5022073;28;20080;-85
2021/03/08 02:20:13;;;;;;;30.00;18.27;;;6.00;79.00;;;;;;5021856;28;20069;-85
2021/03/08 02:22:58;;;;;;;32.50;18.90;;;6.00;79.00;;;;;;5033708;28;20034;-85
2021/03/08 02:25:49;;;;;;;31.92;18.05;;;6.00;79.20;;;;;;5034096;28;20026;-86
2021/03/08 02:28:45;;;;;;;33.63;18.65;;;6.00;79.20;;;;;;5033573;28;20109;-86
2021/03/08 02:31:18;;;;;;;30.70;18.00;;;6.00;79.40;;;;;;5034467;28;20033;-86
2021/03/08 02:33:53;;;;;;;30.67;17.40;;;6.00;79.40;;;;;;5001051;28;20029;-86
2021/03/08 02:36:21;;;;;;;33.42;19.80;;;6.00;79.60;;;;;;5034016;28;20030;-86
2021/03/08 02:38:54;;;;;;;37.65;21.83;;;6.00;79.80;;;;;;5032683;28;20032;-85
2021/03/08 02:41:21;;;;;;;34.85;20.20;;;6.00;79.70;;;;;;5033551;28;20017;-86
2021/03/08 02:43:52;;;;;;;37.58;21.40;;;5.90;79.80;;;;;;5033454;28;20088;-85
2021/03/08 02:46:24;;;;;;;35.13;20.05;;;5.90;79.90;;;;;;5033116;28;20418;-85
2021/03/08 02:48:52;;;;;;;31.65;18.35;;;5.90;79.80;;;;;;5033129;28;20056;-86
2021/03/08 02:51:21;;;;;;;38.40;20.70;;;5.90;79.90;;;;;;5033823;28;20029;-86
2021/03/08 02:53:49;;;;;;;30.85;17.67;;;5.90;79.90;;;;;;5033761;28;20437;-85
2021/03/08 02:56:19;;;;;;;34.33;19.73;;;5.90;80.00;;;;;;5034080;28;20071;-86
2021/03/08 02:58:48;;;;;;;36.03;20.55;;;5.90;80.10;;;;;;5034087;28;20022;-86
2021/03/08 03:01:19;;;;;;;36.35;18.88;;;5.90;80.10;;;;;;5001969;28;20030;-86
2021/03/08 03:03:56;;;;;;;40.88;21.52;;;5.90;80.00;;;;;;5033356;28;20061;-86
2021/03/08 03:06:34;;;;;;;36.72;20.70;;;5.90;80.00;;;;;;5027867;28;20030;-85
2021/03/08 03:09:04;;;;;;;32.38;18.55;;;5.90;80.00;;;;;;5026584;28;20080;-86
2021/03/08 03:11:32;;;;;;;32.75;19.13;;;5.90;80.10;;;;;;5033198;28;20080;-85
2021/03/08 03:13:59;;;;;;;33.72;18.23;;;5.90;80.10;;;;;;5032441;28;20033;-86
2021/03/08 03:16:27;;;;;;;34.42;19.23;;;5.90;80.30;;;;;;5019254;28;20039;-86
2021/03/08 03:18:55;;;;;;;33.53;19.45;;;5.90;80.40;;;;;;5033405;28;20097;-86
2021/03/08 03:21:24;;;;;;;37.05;20.70;;;5.90;80.30;;;;;;5012804;28;20025;-86
2021/03/08 03:23:52;;;;;;;36.80;21.35;;;5.80;80.20;;;;;;5003804;28;20171;-86
2021/03/08 03:26:18;;;;;;;41.15;22.15;;;5.90;80.20;;;;;;5031883;28;20025;-86
2021/03/08 03:28:45;;;;;;;39.50;23.08;;;5.80;80.30;;;;;;5014703;28;20053;-86
2021/03/08 03:31:12;;;;;;;35.30;20.65;;;5.80;80.40;;;;;;4997305;28;20033;-85
2021/03/08 03:33:38;;;;;;;36.83;20.73;;;5.80;80.40;;;;;;5013093;28;20489;-86
2021/03/08 03:36:05;;;;;;;36.50;20.65;;;5.80;80.50;;;;;;4998544;28;20025;-85
2021/03/08 03:38:31;;;;;;;31.60;19.00;;;5.80;80.60;;;;;;5014712;28;20057;-86
2021/03/08 03:40:57;;;;;;;37.00;20.92;;;5.80;80.80;;;;;;5032051;28;20029;-85
2021/03/08 03:43:24;;;;;;;35.97;20.25;;;5.80;80.90;;;;;;5014522;28;20044;-86
2021/03/08 03:45:49;;;;;;;39.65;20.83;;;5.80;80.90;;;;;;5032161;28;20076;-86
2021/03/08 03:48:15;;;;;;;37.45;20.08;;;5.80;80.80;;;;;;5014785;28;20026;-85
2021/03/08 03:50:40;;;;;;;31.30;18.20;;;5.80;80.90;;;;;;4998549;28;20041;-86
2021/03/08 03:53:08;;;;;;;35.72;19.88;;;5.80;80.90;;;;;;5032618;28;20033;-86
2021/03/08 03:55:33;;;;;;;38.50;21.90;;;5.70;80.80;;;;;;4998749;28;20033;-85
2021/03/08 03:58:24;;;;;;;39.90;22.63;;;5.80;81.10;;;;;;5014972;28;20083;-86
2021/03/08 04:01:14;;;;;;;36.15;21.02;;;5.70;81.00;;;;;;5014451;28;20025;-86
2021/03/08 04:03:48;;;;;;;39.38;21.55;;;5.70;81.10;;;;;;5043596;28;20086;-85
2021/03/08 04:06:15;;;;;;;40.20;21.27;;;5.70;81.20;;;;;;5051838;28;20021;-86
2021/03/08 04:08:47;;;;;;;43.22;23.67;;;5.70;81.30;;;;;;5046355;28;20062;-85
2021/03/08 04:11:13;;;;;;;41.95;23.25;;;5.70;81.40;;;;;;5012768;28;20088;-85
2021/03/08 04:13:39;;;;;;;41.22;22.27;;;5.60;82.10;;;;;;5029251;28;20051;-85
2021/03/08 04:16:07;;;;;;;40.88;22.88;;;5.60;81.60;;;;;;5032498;28;20065;-86
2021/03/08 04:18:34;;;;;;;38.45;22.27;;;5.60;81.60;;;;;;5013918;28;20029;-86
2021/03/08 04:21:01;;;;;;;39.20;22.88;;;5.60;81.70;;;;;;4997630;28;20037;-86
2021/03/08 04:23:28;;;;;;;41.75;22.48;;;5.60;81.90;;;;;;5030997;28;20482;-86
2021/03/08 04:25:54;;;;;;;35.55;20.30;;;5.60;81.90;;;;;;5031635;28;20021;-86
2021/03/08 04:28:22;;;;;;;40.72;22.70;;;5.60;82.00;;;;;;5031930;28;20033;-85
2021/03/08 04:30:48;;;;;;;40.78;22.15;;;5.60;82.00;;;;;;5014732;28;20055;-85
2021/03/08 04:33:16;;;;;;;44.08;23.63;;;5.60;82.10;;;;;;5032613;28;20086;-85
2021/03/08 04:35:44;;;;;;;41.45;22.92;;;5.50;82.10;;;;;;5031761;28;20026;-86
2021/03/08 04:38:10;;;;;;;34.53;20.02;;;5.60;82.10;;;;;;5015053;28;20470;-85
2021/03/08 04:40:37;;;;;;;36.72;20.63;;;5.60;82.30;;;;;;5031550;28;20034;-87
2021/03/08 04:43:04;;;;;;;37.65;20.20;;;5.50;82.30;;;;;;5032098;28;20029;-85
2021/03/08 04:45:30;;;;;;;36.38;19.67;;;5.60;82.40;;;;;;5014295;28;20045;-85
2021/03/08 04:47:57;;;;;;;38.42;21.98;;;5.60;82.50;;;;;;5013801;28;20029;-86
2021/03/08 04:50:23;;;;;;;39.15;22.52;;;5.60;82.60;;;;;;4998120;28;20044;-86
2021/03/08 04:52:53;;;;;;;35.38;21.80;;;5.60;82.60;;;;;;5033943;28;20025;-86
2021/03/08 04:55:22;;;;;;;35.78;20.17;;;5.60;82.80;;;;;;5035901;28;20121;-86
2021/03/08 04:57:48;;;;;;;40.13;23.00;;;5.60;82.90;;;;;;5035810;28;20035;-85
2021/03/08 05:00:14;;;;;;;36.58;20.75;;;5.60;83.00;;;;;;5035753;28;20108;-85
2021/03/08 05:02:43;;;;;;;36.40;20.58;;;5.60;83.00;;;;;;5017141;28;20025;-86
2021/03/08 05:05:10;;;;;;;34.40;20.25;;;5.60;83.00;;;;;;5017818;28;20488;-85
2021/03/08 05:07:40;;;;;;;33.42;19.67;;;5.60;83.00;;;;;;5017700;28;20046;-85
2021/03/08 05:10:14;;;;;;;35.47;20.38;;;5.60;83.00;;;;;;5017727;28;20029;-85
2021/03/08 05:12:41;;;;;;;31.95;19.48;;;5.60;83.00;;;;;;5034982;28;20024;-85
2021/03/08 05:15:09;;;;;;;35.88;19.77;;;5.60;83.10;;;;;;5017654;28;20056;-86
2021/03/08 05:17:36;;;;;;;33.10;19.17;;;5.60;83.20;;;;;;5001539;28;20029;-85
2021/03/08 05:20:06;;;;;;;36.55;21.27;;;5.60;83.20;;;;;;5017787;28;20034;-85
2021/03/08 05:22:35;;;;;;;36.45;21.98;;;5.60;83.20;;;;;;5018449;28;20040;-86
2021/03/08 05:25:01;;;;;;;38.60;22.50;;;5.60;83.20;;;;;;5017432;28;20037;-86
2021/03/08 05:27:27;;;;;;;36.92;21.60;;;5.50;83.30;;;;;;5017916;28;20120;-86
2021/03/08 05:29:54;;;;;;;34.10;21.23;;;5.50;83.40;;;;;;5014157;28;20505;-86
2021/03/08 05:32:33;;;;;;;33.63;20.38;;;5.50;83.40;;;;;;5033546;28;20322;-85
2021/03/08 05:35:00;;;;;;;32.25;19.98;;;5.50;83.50;;;;;;5014828;28;20018;-85
2021/03/08 05:37:27;;;;;;;29.67;17.80;;;5.50;83.50;;;;;;5001420;28;20165;-85
2021/03/08 05:39:55;;;;;;;33.45;19.58;;;5.50;83.60;;;;;;5034730;28;20040;-85
2021/03/08 05:42:21;;;;;;;33.28;19.25;;;5.50;83.50;;;;;;5017252;28;20037;-85
2021/03/08 05:44:59;;;;;;;33.08;20.02;;;5.50;83.60;;;;;;5017649;28;20029;-85
2021/03/08 05:47:54;;;;;;;32.75;19.33;;;5.50;83.70;;;;;;5034809;28;20025;-85
2021/03/08 05:50:56;;;;;;;35.25;20.10;;;5.50;83.80;;;;;;5034873;28;20036;-85
2021/03/08 05:53:36;;;;;;;32.78;19.20;;;5.50;83.70;;;;;;5023066;28;20064;-85
2021/03/08 05:56:13;;;;;;;34.22;19.20;;;5.50;83.80;;;;;;5034777;28;20072;-85
2021/03/08 05:58:46;;;;;;;35.25;20.60;;;5.60;83.90;;;;;;5016896;28;20025;-85
2021/03/08 06:01:30;;;;;;;34.47;19.38;;;5.50;83.90;;;;;;5034200;28;20053;-85
2021/03/08 06:04:07;;;;;;;35.13;20.38;;;5.60;84.00;;;;;;5033553;28;20033;-85
2021/03/08 06:07:01;;;;;;;33.55;20.23;;;5.50;83.90;;;;;;5034366;28;20017;-85
2021/03/08 06:09:27;;;;;;;32.05;18.77;;;5.50;84.00;;;;;;5034408;28;20076;-85
2021/03/08 06:11:55;;;;;;;37.80;21.85;;;5.50;84.00;;;;;;5041725;28;20033;-85
2021/03/08 06:14:32;;;;;;;35.83;21.02;;;5.50;84.10;;;;;;5016938;28;20056;-85
2021/03/08 06:16:57;;;;;;;35.53;21.08;;;5.50;84.10;;;;;;5015709;28;20362;-85
2021/03/08 06:19:24;;;;;;;34.20;19.80;;;5.50;84.20;;;;;;5008608;28;20083;-85
2021/03/08 06:21:52;;;;;;;38.33;22.25;;;5.50;84.20;;;;;;5021680;28;20041;-85
2021/03/08 06:24:19;;;;;;;35.60;19.92;;;5.50;84.30;;;;;;5041315;28;20021;-85
2021/03/08 06:26:47;;;;;;;34.47;20.50;;;5.50;84.40;;;;;;5017887;28;20034;-85
2021/03/08 06:29:12;;;;;;;33.03;18.88;;;5.50;84.40;;;;;;5015821;28;20033;-85
2021/03/08 06:31:38;;;;;;;37.30;20.40;;;5.50;84.40;;;;;;5033634;28;20117;-85
2021/03/08 06:34:04;;;;;;;33.67;20.42;;;5.60;84.50;;;;;;5016231;28;20025;-86
2021/03/08 06:36:33;;;;;;;33.00;20.05;;;5.50;84.40;;;;;;5034219;28;20471;-86
2021/03/08 06:38:59;;;;;;;33.88;19.75;;;5.50;84.50;;;;;;4999923;28;20056;-86
2021/03/08 06:41:25;;;;;;;38.20;22.42;;;5.50;85.20;;;;;;5016456;28;20033;-86
2021/03/08 06:43:51;;;;;;;40.42;21.23;;;5.60;84.60;;;;;;4983816;28;20036;-84
2021/03/08 06:46:16;;;;;;;40.10;23.55;;;5.60;84.70;;;;;;4999998;28;20382;-85
2021/03/08 06:48:43;;;;;;;36.83;22.15;;;5.50;84.60;;;;;;5016408;28;20047;-85
2021/03/08 06:51:10;;;;;;;36.35;22.10;;;5.60;84.80;;;;;;5002523;28;20021;-86
2021/03/08 06:53:36;;;;;;;43.00;23.27;;;5.50;84.80;;;;;;5016246;28;20033;-86
2021/03/08 06:56:18;;;;;;;39.25;22.23;;;5.60;84.80;;;;;;4998863;28;20017;-86
2021/03/08 06:59:05;;;;;;;38.97;22.83;;;5.60;84.90;;;;;;5033695;28;20022;-85
2021/03/08 07:01:32;;;;;;;38.88;22.52;;;5.50;84.90;;;;;;5014240;28;20041;-86
2021/03/08 07:03:59;;;;;;;40.47;22.58;;;5.50;84.90;;;;;;5034018;28;20030;-86
2021/03/08 07:06:27;;;;;;;39.42;23.35;;;5.60;85.00;;;;;;5000129;28;20406;-86
2021/03/08 07:09:08;;;;;;;35.33;21.05;;;5.50;84.90;;;;;;5014168;28;20414;-84
2021/03/08 07:11:35;;;;;;;42.92;24.15;;;5.60;85.00;;;;;;5032795;28;20044;-85
2021/03/08 07:14:00;;;;;;;41.05;21.73;;;5.60;85.00;;;;;;5045211;28;20056;-85
2021/03/08 07:16:38;;;;;;;36.35;21.42;;;5.60;85.10;;;;;;5016104;28;20056;-84
2021/03/08 07:19:06;;;;;;;37.08;21.83;;;5.60;85.10;;;;;;4999225;28;20033;-85
2021/03/08 07:21:32;;;;;;;37.20;22.25;;;5.60;85.10;;;;;;5032506;28;20077;-85
2021/03/08 07:24:16;;;;;;;36.97;21.60;;;5.60;85.20;;;;;;5014884;28;20031;-85
2021/03/08 07:26:54;;;;;;;37.53;21.95;;;5.60;85.20;;;;;;5015048;28;20076;-84
2021/03/08 07:29:23;;;;;;;37.70;22.40;;;5.60;85.20;;;;;;5044183;28;20453;-85
2021/03/08 07:31:52;;;;;;;34.22;21.20;;;5.70;85.30;;;;;;5047735;28;20100;-85
2021/03/08 07:34:19;;;;;;;38.10;21.90;;;5.70;85.20;;;;;;5047622;28;20584;-85
2021/03/08 07:36:57;;;;;;;38.45;21.88;;;5.70;85.40;;;;;;5010124;28;20029;-84
2021/03/08 07:39:25;;;;;;;37.58;22.77;;;5.70;85.30;;;;;;5045999;28;20079;-83
2021/03/08 07:41:59;;;;;;;35.35;21.38;;;5.70;85.30;;;;;;5031531;28;20445;-84
2021/03/08 07:44:29;;;;;;;37.22;22.00;;;5.80;85.30;;;;;;5026848;28;20477;-84
2021/03/08 07:46:56;;;;;;;36.90;22.05;;;5.80;85.30;;;;;;5014245;28;20021;-84
2021/03/08 07:49:36;;;;;;;39.08;23.05;;;5.80;85.30;;;;;;5013289;28;20037;-84
2021/03/08 07:52:13;;;;;;;42.42;23.60;;;5.80;85.30;;;;;;5040206;28;20147;-85
2021/03/08 07:54:56;;;;;;;38.00;23.15;;;5.80;85.20;;;;;;5038621;28;20457;-84
2021/03/08 07:57:23;;;;;;;39.67;23.33;;;5.80;85.10;;;;;;5026163;28;20094;-87
2021/03/08 07:59:49;;;;;;;39.05;22.95;;;5.90;85.10;;;;;;5030701;28;20022;-87
2021/03/08 08:02:15;;;;;;;36.13;21.45;;;5.90;85.10;;;;;;5042082;28;20041;-88
2021/03/08 08:04:40;;;;;;;35.90;19.63;;;5.90;85.20;;;;;;4998405;28;20030;-89
2021/03/08 08:07:07;;;;;;;38.60;22.83;;;5.90;85.20;;;;;;5021528;28;20037;-85
2021/03/08 08:09:41;;;;;;;36.97;22.23;;;5.90;85.20;;;;;;5024056;28;20044;-85
2021/03/08 08:12:17;;;;;;;37.72;22.75;;;6.00;85.10;;;;;;5015132;28;20472;-85
2021/03/08 08:14:44;;;;;;;37.95;21.73;;;6.00;85.00;;;;;;5006057;28;20462;-85
2021/03/08 08:17:16;;;;;;;37.03;23.17;;;6.00;84.90;;;;;;5015700;28;20032;-85
2021/03/08 08:19:46;;;;;;;34.30;21.33;;;6.00;85.00;;;;;;5013572;28;20434;-85
2021/03/08 08:22:23;;;;;;;39.15;22.02;;;6.00;85.00;;;;;;5008166;28;20037;-85
2021/03/08 08:24:52;;;;;;;41.42;23.15;;;6.10;85.00;;;;;;5030472;28;20541;-85
2021/03/08 08:27:19;;;;;;;38.83;23.88;;;6.10;85.00;;;;;;5044829;28;20022;-85
2021/03/08 08:29:46;;;;;;;38.10;23.17;;;6.10;84.80;;;;;;5022023;28;20373;-85
2021/03/08 08:32:12;;;;;;;40.20;25.00;;;6.10;84.80;;;;;;5038623;28;20033;-85
2021/03/08 08:34:47;;;;;;;38.72;22.88;;;6.10;84.80;;;;;;5010548;28;20022;-85
2021/03/08 08:37:15;;;;;;;37.35;21.85;;;6.10;84.90;;;;;;5040468;28;20053;-84
2021/03/08 08:40:04;;;;;;;34.22;21.13;;;6.20;85.00;;;;;;5018971;28;20067;-85
2021/03/08 08:42:32;;;;;;;39.47;23.48;;;6.20;85.00;;;;;;5019260;28;20044;-85
2021/03/08 08:44:59;;;;;;;37.17;21.83;;;6.20;85.00;;;;;;5037455;28;20025;-86
2021/03/08 08:47:36;;;;;;;39.15;23.30;;;6.30;85.00;;;;;;5019334;28;20428;-85
2021/03/08 08:50:05;;;;;;;39.10;21.98;;;6.30;85.00;;;;;;5003513;28;20033;-85
2021/03/08 08:52:52;;;;;;;34.63;21.17;;;6.30;85.10;;;;;;5039290;28;20522;-84
2021/03/08 08:55:39;;;;;;;33.05;19.92;;;6.30;85.00;;;;;;5037248;28;20025;-84
2021/03/08 08:58:24;;;;;;;35.58;21.48;;;6.30;85.10;;;;;;5014417;28;20059;-84
2021/03/08 09:01:31;;;;;;;38.53;22.67;;;6.40;85.00;;;;;;5034987;28;20042;-84
2021/03/08 09:04:04;;;;;;;40.00;24.10;;;6.40;84.50;;;;;;5020507;28;20091;-84
2021/03/08 09:06:53;;;;;;;38.00;22.02;;;6.40;84.40;;;;;;5028419;28;20025;-84
2021/03/08 09:09:23;;;;;;;36.10;21.98;;;6.50;84.40;;;;;;5034274;28;20410;-85
2021/03/08 09:12:00;;;;;;;32.85;20.58;;;6.50;84.30;;;;;;5020598;28;20043;-83
2021/03/08 09:14:58;;;;;;;34.70;21.35;;;6.50;84.40;;;;;;5020916;28;20083;-84
2021/03/08 09:17:30;;;;;;;31.88;19.02;;;6.50;84.50;;;;;;5019955;28;20436;-85
2021/03/08 09:19:56;;;;;;;41.72;23.95;;;6.60;84.60;;;;;;5037520;28;20022;-84
2021/03/08 09:22:28;;;;;;;38.05;22.92;;;6.60;84.30;;;;;;5036855;28;20036;-85
2021/03/08 09:24:58;;;;;;;35.72;21.33;;;6.60;84.20;;;;;;5037651;28;20106;-85
2021/03/08 09:27:25;;;;;;;34.28;20.60;;;6.60;84.30;;;;;;5038111;28;20128;-85
2021/03/08 09:29:51;;;;;;;37.72;21.25;;;6.70;84.40;;;;;;5020152;28;20017;-83
2021/03/08 09:32:17;;;;;;;31.92;19.45;;;6.70;84.40;;;;;;5037413;28;20052;-84
2021/03/08 09:34:43;;;;;;;33.83;20.58;;;6.70;84.50;;;;;;5019712;28;20121;-83
2021/03/08 09:37:10;;;;;;;30.10;19.35;;;6.70;84.40;;;;;;5003437;28;20485;-84
2021/03/08 09:39:55;;;;;;;31.63;20.15;;;6.80;84.50;;;;;;5015536;28;20124;-84
2021/03/08 09:42:21;;;;;;;34.08;20.80;;;6.80;84.50;;;;;;5016993;28;20029;-84
2021/03/08 09:44:48;;;;;;;36.75;21.48;;;6.90;84.60;;;;;;5034553;28;20025;-83
2021/03/08 09:47:14;;;;;;;36.17;22.30;;;6.90;84.60;;;;;;5034030;28;20029;-84
2021/03/08 09:49:53;;;;;;;39.15;22.88;;;7.00;83.70;;;;;;5034997;28;20040;-85
2021/03/08 09:52:41;;;;;;;36.30;22.00;;;7.10;83.50;;;;;;5033998;28;20037;-84
2021/03/08 09:55:20;;;;;;;29.77;18.55;;;7.10;83.40;;;;;;5034507;28;20028;-85
2021/03/08 09:57:46;;;;;;;31.08;19.77;;;7.10;83.70;;;;;;5016831;28;20029;-85
2021/03/08 10:00:13;;;;;;;31.83;19.60;;;7.20;83.80;;;;;;5016117;28;20032;-85
2021/03/08 10:02:40;;;;;;;33.70;20.63;;;7.20;83.70;;;;;;5016852;28;20037;-84
2021/03/08 10:05:11;;;;;;;31.67;19.92;;;7.30;83.80;;;;;;5042017;28;20036;-85
2021/03/08 10:07:52;;;;;;;33.50;20.98;;;7.30;83.60;;;;;;5012741;28;20132;-84
2021/03/08 10:10:18;;;;;;;41.70;21.60;;;7.40;83.20;;;;;;5015282;28;20037;-86
2021/03/08 10:12:44;;;;;;;33.17;21.33;;;7.50;82.70;;;;;;5023940;28;20026;-85
2021/03/08 10:15:11;;;;;;;29.98;18.90;;;7.50;83.00;;;;;;5018528;28;20096;-85
2021/03/08 10:17:59;;;;;;;31.83;18.95;;;7.60;83.30;;;;;;5020308;28;20049;-84
2021/03/08 10:20:28;;;;;;;36.80;21.55;;;7.60;83.50;;;;;;5023979;28;20091;-85
2021/03/08 10:22:54;;;;;;;32.63;20.20;;;7.70;83.00;;;;;;5032441;28;20025;-85
2021/03/08 10:25:28;;;;;;;29.52;19.45;;;7.70;83.00;;;;;;5016856;28;20537;-84
2021/03/08 10:27:56;;;;;;;32.05;19.15;;;7.80;83.20;;;;;;5008269;28;20025;-84
2021/03/08 10:30:28;;;;;;;30.38;19.20;;;7.90;83.20;;;;;;5013451;28;20065;-85
2021/03/08 10:33:01;;;;;;;29.45;18.85;;;7.90;83.20;;;;;;5014137;28;20105;-84
2021/03/08 10:35:28;;;;;;;29.65;17.60;;;8.00;83.30;;;;;;5013619;28;20466;-84
2021/03/08 10:37:54;;;;;;;32.70;19.73;;;8.00;83.20;;;;;;5009864;28;20036;-84
2021/03/08 10:40:22;;;;;;;35.03;20.30;;;8.10;83.00;;;;;;5013467;28;20045;-85
2021/03/08 10:42:48;;;;;;;32.60;20.77;;;8.20;82.80;;;;;;5013768;28;20050;-84
2021/03/08 10:45:14;;;;;;;31.00;19.85;;;8.20;82.60;;;;;;5013516;28;20124;-85
2021/03/08 10:47:40;;;;;;;30.00;18.73;;;8.20;82.50;;;;;;5029322;28;20030;-84
2021/03/08 10:50:06;;;;;;;31.05;19.55;;;8.30;82.60;;;;;;5012218;28;20360;-85
2021/03/08 10:52:33;;;;;;;27.95;17.35;;;8.30;82.80;;;;;;5012190;28;20187;-85
2021/03/08 10:54:59;;;;;;;30.55;19.63;;;8.40;82.80;;;;;;5012013;28;20033;-85
2021/03/08 10:57:26;;;;;;;30.23;18.42;;;8.40;82.80;;;;;;5011946;28;20033;-85
2021/03/08 10:59:56;;;;;;;33.90;20.35;;;8.50;82.80;;;;;;5013797;28;20030;-85
2021/03/08 11:02:23;;;;;;;30.65;19.75;;;8.50;82.50;;;;;;5011542;28;20478;-85
2021/03/08 11:05:11;;;;;;;28.02;18.17;;;8.60;82.60;;;;;;5011848;28;20105;-85
2021/03/08 11:07:37;;;;;;;28.85;17.73;;;8.60;82.70;;;;;;5000993;28;20120;-85
2021/03/08 11:10:05;;;;;;;29.63;18.35;;;8.70;82.70;;;;;;5032677;28;20528;-85
2021/03/08 11:12:30;;;;;;;28.20;17.75;;;8.80;82.60;;;;;;5014488;28;20088;-85
2021/03/08 11:14:58;;;;;;;30.02;18.13;;;8.80;82.50;;;;;;5033213;28;20057;-88
2021/03/08 11:17:41;;;;;;;27.80;18.02;;;8.90;82.40;;;;;;5033713;28;20021;-88
2021/03/08 11:20:15;;;;;;;32.38;20.10;;;8.90;82.00;;;;;;5016309;28;20025;-89
2021/03/08 11:23:04;;;;;;;31.08;20.05;;;8.90;81.70;;;;;;5040434;28;20021;-86
2021/03/08 11:25:30;;;;;;;29.73;18.98;;;9.00;80.90;;;;;;5042387;28;20021;-84
2021/03/08 11:27:57;;;;;;;27.75;17.90;;;9.10;81.00;;;;;;5045805;28;20025;-86
2021/03/08 11:30:25;;;;;;;31.63;19.58;;;9.10;81.60;;;;;;5029109;28;20036;-86
2021/03/08 11:32:59;;;;;;;32.72;20.42;;;9.10;80.20;;;;;;5016458;28;20014;-87
2021/03/08 11:35:27;;;;;;;32.33;21.35;;;9.20;80.30;;;;;;5045233;28;20025;-85
2021/03/08 11:38:06;;;;;;;28.98;19.63;;;9.20;79.50;;;;;;5049202;28;20022;-85
2021/03/08 11:40:33;;;;;;;32.30;21.02;;;9.30;79.90;;;;;;5015508;28;20108;-85
2021/03/08 11:42:59;;;;;;;30.95;19.63;;;9.30;80.00;;;;;;5013417;28;20092;-85
2021/03/08 11:45:26;;;;;;;29.75;19.38;;;9.30;79.70;;;;;;5014823;28;20033;-85
2021/03/08 11:47:56;;;;;;;34.58;22.27;;;9.40;79.70;;;;;;5014214;28;20033;-85
2021/03/08 11:50:23;;;;;;;32.00;20.25;;;9.40;79.40;;;;;;5014509;28;20056;-85
2021/03/08 11:52:49;;;;;;;27.92;18.38;;;9.50;79.40;;;;;;5014014;28;20477;-84
2021/03/08 11:55:17;;;;;;;31.45;19.25;;;9.50;79.30;;;;;;5031867;28;20029;-85
2021/03/08 11:57:46;;;;;;;35.00;21.65;;;9.60;79.40;;;;;;5033639;28;20026;-85
2021/03/08 12:00:14;;;;;;;32.13;20.67;;;9.60;78.40;;;;;;5014318;28;20043;-85
2021/03/08 12:02:41;;;;;;;32.70;20.70;;;9.60;78.20;;;;;;4995504;28;20124;-85
2021/03/08 12:05:08;;;;;;;29.77;18.70;;;9.60;78.50;;;;;;5031561;28;20017;-85
2021/03/08 12:07:34;;;;;;;36.03;23.00;;;9.70;78.60;;;;;;4997125;28;20462;-84
2021/03/08 12:10:00;;;;;;;34.65;22.48;;;9.70;76.90;;;;;;5032110;28;20108;-85
2021/03/08 12:12:26;;;;;;;37.15;23.38;;;9.70;75.90;;;;;;4998065;28;20033;-85
2021/03/08 12:14:52;;;;;;;30.85;20.75;;;9.70;75.10;;;;;;5031260;28;20025;-83
2021/03/08 12:17:18;;;;;;;38.90;25.08;;;9.70;76.30;;;;;;5009682;28;20030;-84
2021/03/08 12:19:44;;;;;;;33.83;21.88;;;9.70;76.40;;;;;;5013712;28;20382;-85
2021/03/08 12:22:09;;;;;;;38.28;22.17;;;9.70;75.70;;;;;;5031609;28;20034;-85
2021/03/08 12:24:35;;;;;;;32.90;21.95;;;9.70;75.00;;;;;;5013845;28;20033;-85
2021/03/08 12:27:01;;;;;;;35.50;21.83;;;9.70;75.10;;;;;;5013909;28;20028;-85
2021/03/08 12:29:26;;;;;;;31.77;21.60;;;9.70;75.70;;;;;;4997688;28;20028;-85
2021/03/08 12:31:52;;;;;;;34.72;20.83;;;9.70;75.80;;;;;;5031246;28;20030;-85
2021/03/08 12:34:18;;;;;;;36.67;23.27;;;9.70;74.50;;;;;;5013908;28;20028;-85
2021/03/08 12:36:43;;;;;;;40.75;24.23;;;9.70;74.60;;;;;;5013797;28;20037;-85
2021/03/08 12:39:09;;;;;;;41.85;25.13;;;9.60;74.30;;;;;;5013669;28;20025;-85
2021/03/08 12:41:34;;;;;;;33.03;21.90;;;9.60;74.00;;;;;;5013651;28;20043;-85
2021/03/08 12:44:00;;;;;;;36.67;22.77;;;9.60;74.70;;;;;;5031148;28;20030;-85
2021/03/08 12:46:26;;;;;;;32.33;20.67;;;9.60;75.30;;;;;;5038176;28;20025;-84
2021/03/08 12:48:52;;;;;;;36.10;22.60;;;9.60;75.10;;;;;;5016234;28;20153;-84
2021/03/08 12:51:19;;;;;;;30.98;21.05;;;9.60;74.80;;;;;;5013608;28;20363;-84